Time;durP1;ratioP1;P1;durP2;ratioP2;P2;SDS_P1;SDS_P2;PMS_P1;PMS_P2;Temp;Humidity;BMP_temperature;BMP_pressure;BME280_temperature;BME280_humidity;BME280_pressure;Samples;Min_cycle;Max_cycle;Signal;HPM_P1;HPM_P2
2021/03/08 00:01:29;;;;;;;70.45;33.30;;;4.10;99.90;;;;;;5087885;28;20123;-65
2021/03/08 00:03:55;;;;;;;76.82;34.38;;;4.20;99.90;;;;;;5057088;28;20035;-66
2021/03/08 00:06:21;;;;;;;74.25;34.22;;;4.20;99.90;;;;;;5080121;28;20024;-66
2021/03/08 00:08:46;;;;;;;73.30;34.20;;;4.20;99.90;;;;;;5077746;28;20452;-66
2021/03/08 00:11:12;;;;;;;67.00;30.92;;;4.10;99.90;;;;;;5079633;28;20047;-68
2021/03/08 00:13:37;;;;;;;73.43;33.75;;;4.10;99.90;;;;;;5057878;28;20039;-66
2021/03/08 00:16:03;;;;;;;72.85;33.33;;;4.10;99.90;;;;;;5080858;28;20020;-66
2021/03/08 00:18:28;;;;;;;74.15;32.88;;;4.10;99.90;;;;;;5055252;28;20518;-66
2021/03/08 00:20:54;;;;;;;74.18;33.45;;;4.20;99.90;;;;;;5068335;28;20035;-65
2021/03/08 00:23:19;;;;;;;73.65;32.42;;;4.20;99.90;;;;;;5074227;28;20046;-67
2021/03/08 00:25:45;;;;;;;76.35;33.58;;;4.10;99.90;;;;;;5068709;28;20447;-69
2021/03/08 00:28:11;;;;;;;73.63;33.92;;;4.20;99.90;;;;;;5054222;28;20051;-67
2021/03/08 00:30:36;;;;;;;65.10;32.55;;;4.20;99.90;;;;;;5067312;28;20063;-67
2021/03/08 00:33:02;;;;;;;76.50;33.30;;;4.20;99.90;;;;;;5056148;28;20071;-66
2021/03/08 00:35:28;;;;;;;74.13;33.70;;;4.20;99.90;;;;;;5069758;28;20107;-69
2021/03/08 00:37:53;;;;;;;67.28;31.73;;;4.20;99.90;;;;;;5067587;28;20032;-67
2021/03/08 00:40:21;;;;;;;71.10;32.75;;;4.20;99.90;;;;;;5070492;28;20445;-66
2021/03/08 00:42:47;;;;;;;69.63;32.38;;;4.20;99.90;;;;;;5076904;28;20024;-66
2021/03/08 00:45:15;;;;;;;67.45;30.52;;;4.30;99.90;;;;;;5066010;28;20032;-66
2021/03/08 00:47:41;;;;;;;79.15;33.83;;;4.30;99.90;;;;;;5068400;28;20029;-66
2021/03/08 00:50:12;;;;;;;63.50;33.47;;;4.40;99.90;;;;;;5066731;28;20138;-66
2021/03/08 00:52:38;;;;;;;75.10;33.60;;;4.50;99.90;;;;;;5064779;28;20035;-65
2021/03/08 00:55:04;;;;;;;72.03;31.33;;;4.50;99.90;;;;;;5066088;28;20032;-67
2021/03/08 00:57:30;;;;;;;65.50;30.45;;;4.40;99.90;;;;;;5063288;28;20017;-68
2021/03/08 00:59:56;;;;;;;70.20;31.80;;;4.50;99.90;;;;;;5067524;28;20055;-70
2021/03/08 01:02:21;;;;;;;75.85;31.95;;;4.50;99.90;;;;;;5065775;28;20066;-67
2021/03/08 01:04:47;;;;;;;72.70;32.38;;;4.50;99.90;;;;;;5067347;28;20035;-66
2021/03/08 01:07:12;;;;;;;63.97;30.65;;;4.60;99.90;;;;;;5067572;28;20049;-65
2021/03/08 01:09:38;;;;;;;67.55;31.35;;;4.60;99.90;;;;;;5066942;28;20041;-67
2021/03/08 01:12:05;;;;;;;64.25;32.35;;;4.60;99.90;;;;;;5067095;28;20032;-66
2021/03/08 01:14:31;;;;;;;65.68;31.30;;;4.60;99.90;;;;;;5067313;28;20375;-68
2021/03/08 01:16:57;;;;;;;72.72;31.02;;;4.70;99.90;;;;;;5067608;28;20134;-67
2021/03/08 01:19:23;;;;;;;66.45;31.13;;;4.60;99.90;;;;;;5068561;28;20183;-67
2021/03/08 01:21:48;;;;;;;68.03;31.83;;;4.60;99.90;;;;;;5069402;28;20020;-69
2021/03/08 01:24:14;;;;;;;69.05;31.55;;;4.70;99.90;;;;;;5048799;28;20032;-65
2021/03/08 01:26:39;;;;;;;62.85;30.13;;;4.70;99.90;;;;;;5066966;28;20052;-65
2021/03/08 01:29:05;;;;;;;68.90;31.70;;;4.70;99.90;;;;;;5070407;28;20033;-69
2021/03/08 01:31:31;;;;;;;64.22;31.50;;;4.60;99.90;;;;;;5073786;28;20586;-65
2021/03/08 01:33:57;;;;;;;61.35;30.48;;;4.60;99.90;;;;;;5074972;28;20035;-66
2021/03/08 01:36:22;;;;;;;65.22;31.48;;;4.70;99.90;;;;;;5077117;28;20138;-68
2021/03/08 01:38:48;;;;;;;68.55;31.00;;;4.70;99.90;;;;;;5074479;28;20441;-65
2021/03/08 01:41:14;;;;;;;64.30;31.05;;;4.80;99.90;;;;;;5071083;28;20067;-67
2021/03/08 01:43:40;;;;;;;63.47;31.95;;;4.70;99.90;;;;;;5074311;28;20025;-65
2021/03/08 01:46:06;;;;;;;77.43;33.63;;;4.60;99.90;;;;;;5067877;28;20017;-66
2021/03/08 01:48:32;;;;;;;65.45;29.90;;;4.60;99.90;;;;;;5055885;28;20040;-66
2021/03/08 01:50:58;;;;;;;75.05;32.03;;;4.60;99.90;;;;;;5071355;28;20365;-67
2021/03/08 01:53:27;;;;;;;67.75;31.95;;;4.60;99.90;;;;;;5069426;28;20558;-65
2021/03/08 01:55:53;;;;;;;70.40;32.42;;;4.60;99.90;;;;;;5052332;28;20025;-65
2021/03/08 01:58:19;;;;;;;68.50;31.35;;;4.60;99.90;;;;;;5069897;28;20359;-66
2021/03/08 02:00:45;;;;;;;65.40;32.25;;;4.70;99.90;;;;;;5070229;28;20028;-66
2021/03/08 02:03:11;;;;;;;63.50;32.00;;;4.80;99.90;;;;;;5052094;28;20021;-65
2021/03/08 02:05:43;;;;;;;67.10;33.13;;;4.80;99.90;;;;;;5071140;28;20469;-67
2021/03/08 02:08:11;;;;;;;67.85;32.45;;;4.90;99.90;;;;;;5070080;28;20540;-68
2021/03/08 02:10:39;;;;;;;67.20;32.53;;;4.90;99.90;;;;;;5070305;28;20100;-66
2021/03/08 02:13:24;;;;;;;76.50;34.63;;;4.90;99.90;;;;;;5069760;28;20090;-66
2021/03/08 02:15:52;;;;;;;70.50;33.85;;;4.90;99.90;;;;;;5047700;28;20024;-65
2021/03/08 02:18:56;;;;;;;70.15;34.15;;;4.90;99.90;;;;;;5077366;28;20035;-65
2021/03/08 02:21:33;;;;;;;68.28;32.65;;;4.80;99.90;;;;;;5075020;28;20024;-68
2021/03/08 02:24:02;;;;;;;67.32;32.75;;;4.60;99.90;;;;;;5069565;28;20107;-66
2021/03/08 02:27:03;;;;;;;66.57;30.90;;;4.50;99.90;;;;;;5070835;28;20093;-68
2021/03/08 02:29:28;;;;;;;73.82;31.77;;;4.50;99.90;;;;;;5032037;28;20094;-67
2021/03/08 02:31:57;;;;;;;69.72;31.85;;;4.30;99.90;;;;;;5071708;28;20033;-68
2021/03/08 02:34:35;;;;;;;71.45;31.48;;;4.30;99.90;;;;;;5078907;28;20052;-67
2021/03/08 02:37:16;;;;;;;63.50;32.08;;;4.40;99.90;;;;;;5070058;28;20056;-65
2021/03/08 02:39:45;;;;;;;65.07;30.52;;;4.40;99.90;;;;;;5069863;28;20020;-65
2021/03/08 02:42:17;;;;;;;69.32;31.08;;;4.40;99.90;;;;;;5069978;28;20473;-65
2021/03/08 02:44:43;;;;;;;64.45;30.25;;;4.30;99.90;;;;;;5070435;28;20039;-68
2021/03/08 02:47:11;;;;;;;64.40;30.08;;;4.30;99.90;;;;;;5070830;28;20093;-65
2021/03/08 02:49:39;;;;;;;73.93;32.25;;;4.30;99.90;;;;;;5053163;28;20471;-67
2021/03/08 02:52:09;;;;;;;66.40;30.70;;;4.20;99.90;;;;;;5069941;28;20044;-67
2021/03/08 02:54:40;;;;;;;66.53;30.63;;;4.20;99.90;;;;;;5069198;28;20512;-68
2021/03/08 02:57:09;;;;;;;63.13;30.38;;;4.30;99.90;;;;;;5069406;28;20036;-66
2021/03/08 02:59:42;;;;;;;63.72;30.17;;;4.30;99.90;;;;;;5066634;28;20055;-67
2021/03/08 03:02:09;;;;;;;66.97;30.98;;;4.30;99.90;;;;;;5049821;28;20020;-68
2021/03/08 03:04:37;;;;;;;65.80;30.60;;;4.30;99.90;;;;;;5067878;28;20039;-68
2021/03/08 03:07:04;;;;;;;73.70;30.55;;;4.20;99.90;;;;;;5059709;28;20032;-65
2021/03/08 03:09:33;;;;;;;61.55;30.17;;;4.30;99.90;;;;;;5069533;28;20465;-66
2021/03/08 03:12:00;;;;;;;60.80;29.00;;;4.30;99.90;;;;;;5069541;28;20540;-66
2021/03/08 03:14:27;;;;;;;65.25;29.73;;;4.20;99.90;;;;;;5048736;28;20148;-67
2021/03/08 03:16:58;;;;;;;60.10;29.38;;;4.20;99.90;;;;;;5066007;28;20035;-68
2021/03/08 03:19:25;;;;;;;72.90;30.23;;;4.20;99.90;;;;;;5069169;28;20504;-65
2021/03/08 03:21:52;;;;;;;67.97;29.77;;;4.10;99.90;;;;;;5067888;28;20511;-68
2021/03/08 03:24:18;;;;;;;64.05;29.50;;;4.20;99.90;;;;;;5060374;28;20028;-68
2021/03/08 03:26:44;;;;;;;68.60;31.08;;;4.20;99.90;;;;;;5032462;28;20025;-68
2021/03/08 03:29:13;;;;;;;67.95;30.75;;;4.10;99.90;;;;;;5068498;28;20024;-67
2021/03/08 03:31:40;;;;;;;66.45;29.17;;;4.10;99.90;;;;;;5051118;28;20052;-66
2021/03/08 03:34:07;;;;;;;64.15;29.52;;;4.10;99.90;;;;;;5046796;28;20529;-67
2021/03/08 03:36:35;;;;;;;61.03;30.40;;;4.10;99.90;;;;;;5074731;28;20020;-66
2021/03/08 03:39:04;;;;;;;61.42;29.23;;;4.10;99.90;;;;;;5085482;28;20027;-66
2021/03/08 03:41:29;;;;;;;65.22;29.88;;;4.20;99.90;;;;;;5077445;28;20138;-69
2021/03/08 03:43:55;;;;;;;61.67;27.98;;;4.30;99.90;;;;;;5064558;28;20591;-67
2021/03/08 03:46:20;;;;;;;63.08;31.23;;;4.40;99.90;;;;;;5069550;28;20035;-68
2021/03/08 03:48:46;;;;;;;58.53;28.42;;;4.40;99.90;;;;;;5057436;28;20062;-66
2021/03/08 03:51:12;;;;;;;58.70;28.98;;;4.40;99.90;;;;;;5067926;28;20037;-67
2021/03/08 03:53:41;;;;;;;68.93;30.55;;;4.50;99.90;;;;;;5066935;28;20112;-66
2021/03/08 03:56:09;;;;;;;56.13;28.30;;;4.50;99.90;;;;;;5068932;28;20074;-67
2021/03/08 03:58:41;;;;;;;61.10;28.95;;;4.60;99.90;;;;;;5068464;28;20020;-67
2021/03/08 04:01:21;;;;;;;62.30;28.77;;;4.50;99.90;;;;;;5068627;28;20028;-65
2021/03/08 04:04:13;;;;;;;64.47;28.95;;;4.50;99.90;;;;;;5049114;28;20039;-69
2021/03/08 04:06:43;;;;;;;60.08;28.38;;;4.50;99.90;;;;;;5068128;28;20036;-67
2021/03/08 04:09:11;;;;;;;62.65;28.80;;;4.40;99.90;;;;;;5068027;28;20036;-69
2021/03/08 04:11:39;;;;;;;60.08;29.90;;;4.50;99.90;;;;;;5068015;28;20036;-67
2021/03/08 04:14:06;;;;;;;66.32;29.63;;;4.40;99.90;;;;;;5067551;28;20038;-69
2021/03/08 04:16:35;;;;;;;54.97;26.80;;;4.30;99.90;;;;;;5068066;28;20032;-67
2021/03/08 04:19:02;;;;;;;69.28;29.17;;;4.50;99.90;;;;;;5063194;28;20028;-67
2021/03/08 04:21:34;;;;;;;57.63;27.30;;;4.60;99.90;;;;;;5082688;28;20831;-66
2021/03/08 04:24:01;;;;;;;59.20;28.65;;;4.70;99.90;;;;;;5077812;28;20448;-65
2021/03/08 04:26:27;;;;;;;65.45;28.90;;;4.70;99.90;;;;;;5081870;28;20025;-66
2021/03/08 04:28:53;;;;;;;63.33;29.10;;;4.60;99.90;;;;;;5076897;28;20024;-67
2021/03/08 04:31:19;;;;;;;63.75;28.85;;;4.40;99.90;;;;;;5076221;28;20086;-66
2021/03/08 04:33:46;;;;;;;62.22;29.15;;;4.20;99.90;;;;;;5051093;28;20121;-65
2021/03/08 04:36:12;;;;;;;65.10;29.67;;;4.20;99.90;;;;;;5065819;28;20021;-66
2021/03/08 04:38:41;;;;;;;62.03;27.90;;;4.30;99.90;;;;;;5055284;28;20116;-68
2021/03/08 04:41:08;;;;;;;64.47;27.95;;;4.20;99.90;;;;;;5069222;28;20024;-66
2021/03/08 04:43:35;;;;;;;59.50;28.00;;;4.30;99.90;;;;;;5049446;28;20509;-64
2021/03/08 04:46:01;;;;;;;68.45;29.00;;;4.30;99.90;;;;;;5064457;28;20017;-66
2021/03/08 04:48:27;;;;;;;64.07;28.90;;;4.10;99.90;;;;;;5065895;28;20047;-68
2021/03/08 04:50:54;;;;;;;64.32;28.95;;;4.10;99.90;;;;;;5065946;28;20067;-67
2021/03/08 04:53:21;;;;;;;64.63;29.77;;;4.10;99.90;;;;;;5062385;28;20345;-67
2021/03/08 04:55:48;;;;;;;63.30;29.45;;;4.10;99.90;;;;;;5065587;28;20055;-65
2021/03/08 04:58:13;;;;;;;63.30;28.50;;;4.10;99.90;;;;;;5064128;28;20024;-66
2021/03/08 05:00:39;;;;;;;63.95;29.17;;;4.10;99.90;;;;;;5060568;28;20025;-66
2021/03/08 05:03:05;;;;;;;63.83;29.20;;;4.20;99.90;;;;;;5065341;28;20056;-67
2021/03/08 05:05:31;;;;;;;64.05;29.58;;;4.20;99.90;;;;;;5061657;28;20107;-68
2021/03/08 05:08:05;;;;;;;69.05;30.23;;;4.20;99.90;;;;;;5065707;28;20044;-65
2021/03/08 05:10:33;;;;;;;71.65;30.88;;;4.20;99.90;;;;;;5061737;28;20131;-66
2021/03/08 05:12:59;;;;;;;68.38;30.00;;;4.10;99.90;;;;;;5060757;28;20027;-67
2021/03/08 05:15:27;;;;;;;63.13;27.60;;;4.10;99.90;;;;;;5066079;28;20033;-65
2021/03/08 05:17:55;;;;;;;67.30;30.52;;;4.10;99.90;;;;;;5065298;28;20045;-66
2021/03/08 05:20:21;;;;;;;66.30;28.27;;;4.10;99.90;;;;;;5064403;28;20025;-68
2021/03/08 05:22:48;;;;;;;70.68;31.42;;;4.20;99.90;;;;;;5064805;28;20119;-66
2021/03/08 05:25:14;;;;;;;64.70;29.60;;;4.20;99.90;;;;;;5060821;28;20028;-66
2021/03/08 05:27:42;;;;;;;65.60;29.90;;;4.20;99.90;;;;;;5067351;28;20503;-67
2021/03/08 05:30:09;;;;;;;66.82;30.25;;;4.10;99.90;;;;;;5070311;28;20040;-67
2021/03/08 05:32:42;;;;;;;67.40;31.05;;;4.10;99.90;;;;;;5078597;28;20024;-66
2021/03/08 05:35:10;;;;;;;69.65;28.45;;;4.10;99.90;;;;;;5071186;28;20033;-67
2021/03/08 05:37:39;;;;;;;69.78;30.58;;;4.10;99.90;;;;;;5055858;28;20017;-67
2021/03/08 05:40:20;;;;;;;78.07;30.30;;;4.10;99.90;;;;;;5068892;28;20032;-71
2021/03/08 05:42:48;;;;;;;71.63;30.73;;;4.10;99.90;;;;;;5066444;28;20414;-68
2021/03/08 05:45:25;;;;;;;70.75;30.77;;;4.10;99.90;;;;;;5069112;28;20074;-68
2021/03/08 05:48:07;;;;;;;62.45;29.05;;;4.10;99.90;;;;;;5075222;28;20028;-68
2021/03/08 05:51:10;;;;;;;62.60;29.50;;;4.20;99.90;;;;;;5055246;28;20054;-68
2021/03/08 05:53:38;;;;;;;;;;;4.40;99.90;;;;;;5066877;28;20068;-66
2021/03/08 05:56:49;;;;;;;61.08;29.15;;;4.40;99.90;;;;;;5067464;28;19916;-68
2021/03/08 05:59:40;;;;;;;60.55;29.30;;;4.40;99.90;;;;;;5065348;28;20025;-66
2021/03/08 06:02:48;;;;;;;62.03;29.48;;;4.50;99.90;;;;;;5059608;28;20072;-67
2021/03/08 06:05:38;;;;;;;62.80;29.17;;;4.50;99.90;;;;;;5065073;28;20044;-67
2021/03/08 06:08:22;;;;;;;62.53;30.52;;;4.60;99.90;;;;;;5074234;28;20182;-66
2021/03/08 06:11:09;;;;;;;62.03;29.02;;;4.50;99.90;;;;;;5064878;28;20033;-66
2021/03/08 06:13:51;;;;;;;68.63;29.95;;;4.50;99.90;;;;;;5058128;28;20021;-68
2021/03/08 06:16:23;;;;;;;60.83;29.10;;;4.40;99.90;;;;;;5059414;28;20075;-67
2021/03/08 06:18:52;;;;;;;62.30;30.02;;;4.40;99.90;;;;;;5068042;28;20035;-67
2021/03/08 06:21:19;;;;;;;76.38;30.92;;;4.30;99.90;;;;;;5060470;28;20078;-69
2021/03/08 06:23:45;;;;;;;69.43;31.55;;;4.30;99.90;;;;;;5063708;28;20028;-65
2021/03/08 06:26:14;;;;;;;72.03;31.40;;;4.40;99.90;;;;;;5064892;28;20036;-66
2021/03/08 06:28:40;;;;;;;65.25;30.80;;;4.50;99.90;;;;;;5068877;28;20036;-68
2021/03/08 06:31:07;;;;;;;72.60;31.27;;;4.60;99.90;;;;;;5072578;28;20051;-69
2021/03/08 06:33:34;;;;;;;66.47;29.92;;;4.60;99.90;;;;;;5074044;28;20021;-66
2021/03/08 06:36:01;;;;;;;67.47;30.85;;;4.80;99.90;;;;;;5076934;28;20468;-68
2021/03/08 06:38:28;;;;;;;62.95;30.58;;;4.80;99.90;;;;;;5041531;28;20025;-66
2021/03/08 06:40:55;;;;;;;61.25;30.85;;;4.90;99.90;;;;;;5058906;28;20419;-67
2021/03/08 06:43:20;;;;;;;64.82;31.70;;;4.90;99.90;;;;;;5060028;28;20057;-66
2021/03/08 06:45:46;;;;;;;59.72;29.75;;;5.00;99.90;;;;;;5062034;28;20057;-68
2021/03/08 06:48:12;;;;;;;64.05;30.60;;;5.00;99.90;;;;;;5062467;28;20401;-70
2021/03/08 06:50:38;;;;;;;59.75;29.88;;;4.90;99.90;;;;;;5058559;28;20469;-67
2021/03/08 06:53:04;;;;;;;60.22;28.98;;;5.00;99.90;;;;;;5066636;28;20026;-68
2021/03/08 06:55:29;;;;;;;57.42;28.60;;;5.00;99.90;;;;;;5070244;28;20029;-65
2021/03/08 06:57:57;;;;;;;64.13;29.80;;;5.00;99.90;;;;;;5067983;28;20094;-66
2021/03/08 07:00:22;;;;;;;56.58;27.70;;;5.00;99.90;;;;;;5077511;28;20032;-68
2021/03/08 07:02:49;;;;;;;57.80;28.48;;;4.90;99.90;;;;;;5074710;28;20272;-68
2021/03/08 07:05:27;;;;;;;65.53;29.58;;;4.70;99.90;;;;;;5071861;28;20024;-68
2021/03/08 07:07:59;;;;;;;68.40;30.08;;;4.60;99.90;;;;;;5070992;28;20152;-70
2021/03/08 07:10:39;;;;;;;57.47;28.50;;;4.70;99.90;;;;;;5081160;28;20037;-66
2021/03/08 07:13:08;;;;;;;67.68;30.10;;;4.80;99.90;;;;;;5070502;28;20024;-70
2021/03/08 07:15:56;;;;;;;59.70;29.27;;;4.80;99.90;;;;;;5075647;28;20028;-66
2021/03/08 07:18:22;;;;;;;59.85;29.08;;;4.80;99.90;;;;;;5067261;28;20020;-66
2021/03/08 07:21:12;;;;;;;69.25;32.47;;;4.60;99.90;;;;;;5070602;28;20024;-67
2021/03/08 07:23:39;;;;;;;62.42;28.58;;;4.60;99.90;;;;;;5080576;28;20044;-71
2021/03/08 07:26:18;;;;;;;63.40;28.05;;;4.60;99.90;;;;;;5057412;28;20047;-65
2021/03/08 07:29:04;;;;;;;62.97;29.15;;;4.60;99.90;;;;;;5085102;28;20028;-68
2021/03/08 07:31:36;;;;;;;63.70;28.38;;;4.70;99.90;;;;;;5042376;28;20493;-65
2021/03/08 07:34:02;;;;;;;;;;;4.70;99.90;;;;;;5054316;28;20020;-66
2021/03/08 07:36:28;;;;;;;67.10;29.30;;;4.70;99.90;;;;;;5088697;28;19904;-68
2021/03/08 07:38:54;;;;;;;61.30;28.27;;;4.80;99.90;;;;;;5056163;28;20021;-66
2021/03/08 07:41:22;;;;;;;63.05;29.42;;;4.80;99.90;;;;;;5068810;28;20042;-69
2021/03/08 07:43:49;;;;;;;64.72;28.92;;;4.80;99.90;;;;;;5050792;28;20021;-67
2021/03/08 07:46:35;;;;;;;69.15;31.48;;;4.80;99.90;;;;;;5082452;28;20031;-67
2021/03/08 07:49:04;;;;;;;67.65;28.83;;;4.90;99.90;;;;;;5080348;28;20028;-69
2021/03/08 07:51:30;;;;;;;61.30;28.63;;;4.90;99.90;;;;;;5051315;28;20043;-67
2021/03/08 07:54:04;;;;;;;66.93;30.02;;;4.90;99.90;;;;;;5044042;28;20021;-65
2021/03/08 07:56:30;;;;;;;66.22;30.30;;;5.00;99.90;;;;;;5082083;28;20090;-69
2021/03/08 07:58:56;;;;;;;66.82;29.98;;;5.00;99.90;;;;;;5076915;28;20630;-68
2021/03/08 08:01:22;;;;;;;59.28;28.63;;;5.00;99.90;;;;;;5074546;28;20035;-68
2021/03/08 08:03:48;;;;;;;65.03;28.83;;;5.00;99.90;;;;;;5061069;28;20513;-72
2021/03/08 08:06:19;;;;;;;61.33;28.75;;;5.10;99.90;;;;;;5079084;28;20050;-71
2021/03/08 08:08:55;;;;;;;63.67;27.98;;;5.20;99.90;;;;;;5050303;28;20044;-67
2021/03/08 08:11:26;;;;;;;61.20;29.05;;;5.30;99.90;;;;;;5070654;28;20047;-68
2021/03/08 08:13:58;;;;;;;61.10;28.45;;;5.30;99.90;;;;;;5066494;28;20023;-66
2021/03/08 08:16:25;;;;;;;;;;;5.30;99.90;;;;;;5077551;28;20031;-67
2021/03/08 08:19:06;;;;;;;73.03;30.85;;;5.40;99.90;;;;;;5062224;28;20351;-67
2021/03/08 08:21:34;;;;;;;63.78;29.83;;;5.50;99.90;;;;;;5056575;28;20017;-68
2021/03/08 08:24:06;;;;;;;62.50;29.58;;;5.60;99.90;;;;;;5069944;28;20039;-70
2021/03/08 08:26:32;;;;;;;66.18;29.10;;;5.60;99.90;;;;;;5078990;28;20024;-66
2021/03/08 08:28:58;;;;;;;65.72;27.95;;;5.60;99.90;;;;;;5073477;28;20023;-70
2021/03/08 08:31:24;;;;;;;61.47;28.42;;;5.60;99.90;;;;;;5069357;28;20029;-68
2021/03/08 08:33:50;;;;;;;62.53;29.38;;;5.70;99.90;;;;;;5069225;28;20025;-71
2021/03/08 08:36:20;;;;;;;63.22;28.52;;;5.60;99.90;;;;;;5085580;28;20042;-68
2021/03/08 08:38:54;;;;;;;64.00;29.85;;;5.60;99.90;;;;;;5078092;28;20027;-69
2021/03/08 08:41:31;;;;;;;64.72;28.42;;;5.50;99.90;;;;;;5079316;28;20025;-70
2021/03/08 08:44:09;;;;;;;60.33;28.95;;;5.50;99.90;;;;;;5079275;28;20415;-66
2021/03/08 08:46:37;;;;;;;61.63;28.35;;;5.70;99.90;;;;;;5087704;28;20149;-68
2021/03/08 08:49:13;;;;;;;61.10;29.23;;;5.80;99.90;;;;;;5077898;28;20050;-68
2021/03/08 08:51:53;;;;;;;60.83;28.70;;;5.80;99.90;;;;;;5069904;28;20048;-67
2021/03/08 08:54:27;;;;;;;66.68;28.73;;;5.80;99.90;;;;;;5086607;28;20020;-68
2021/03/08 08:57:02;;;;;;;68.15;29.40;;;5.90;99.90;;;;;;5068860;28;20103;-67
2021/03/08 08:59:33;;;;;;;66.95;28.73;;;5.90;99.90;;;;;;5068963;28;20104;-71
2021/03/08 09:02:16;;;;;;;58.65;27.33;;;5.80;99.90;;;;;;5051100;28;20089;-68
2021/03/08 09:04:42;;;;;;;63.38;27.55;;;5.90;99.90;;;;;;5068418;28;20100;-68
2021/03/08 09:07:27;;;;;;;58.00;27.90;;;6.20;99.90;;;;;;5070683;28;20089;-69
2021/03/08 09:10:01;;;;;;;62.40;27.50;;;6.30;99.90;;;;;;5076544;28;20365;-67
2021/03/08 09:12:33;;;;;;;56.42;26.52;;;6.00;99.90;;;;;;5068589;28;20106;-70
2021/03/08 09:15:06;;;;;;;57.30;27.30;;;5.90;99.90;;;;;;5076933;28;20036;-66
2021/03/08 09:17:45;;;;;;;54.58;26.30;;;5.80;99.90;;;;;;5068308;28;20106;-66
2021/03/08 09:20:13;;;;;;;52.95;24.20;;;5.80;99.90;;;;;;5077430;28;20074;-69
2021/03/08 09:22:51;;;;;;;57.70;24.77;;;5.80;99.90;;;;;;5068460;28;20381;-67
2021/03/08 09:25:20;;;;;;;57.22;26.35;;;6.00;99.90;;;;;;5088156;28;20392;-67
2021/03/08 09:27:48;;;;;;;53.30;24.90;;;6.10;99.90;;;;;;5070265;28;20017;-67
2021/03/08 09:30:23;;;;;;;57.33;24.55;;;6.00;99.90;;;;;;5077241;28;20031;-68
2021/03/08 09:33:02;;;;;;;51.55;25.13;;;6.00;99.90;;;;;;5061781;28;20282;-70
2021/03/08 09:35:49;;;;;;;51.15;25.40;;;6.00;99.90;;;;;;5065253;28;20393;-67
2021/03/08 09:38:18;;;;;;;52.72;24.85;;;6.10;99.90;;;;;;5054578;28;20025;-68
2021/03/08 09:40:58;;;;;;;51.78;24.77;;;6.40;99.90;;;;;;5069891;28;20070;-67
2021/03/08 09:43:32;;;;;;;57.15;25.40;;;6.40;99.90;;;;;;5067936;28;20024;-67
2021/03/08 09:45:57;;;;;;;50.33;25.50;;;6.30;99.90;;;;;;5070472;28;20485;-68
2021/03/08 09:48:23;;;;;;;53.55;25.75;;;6.10;99.90;;;;;;5070483;28;20021;-69
2021/03/08 09:50:49;;;;;;;56.65;25.88;;;6.10;99.90;;;;;;5069159;28;20440;-66
2021/03/08 09:53:14;;;;;;;63.53;27.20;;;6.20;99.90;;;;;;5069416;28;20024;-67
2021/03/08 09:55:40;;;;;;;57.25;27.20;;;6.40;99.90;;;;;;5060070;28;20434;-68
2021/03/08 09:58:13;;;;;;;50.33;24.60;;;6.40;99.90;;;;;;5082246;28;20023;-67
2021/03/08 10:00:40;;;;;;;56.15;26.63;;;6.60;99.90;;;;;;5070895;28;20024;-67
2021/03/08 10:03:07;;;;;;;56.90;25.92;;;7.00;99.90;;;;;;5054158;28;20045;-65
2021/03/08 10:05:51;;;;;;;62.05;28.25;;;7.40;99.90;;;;;;5066496;28;20119;-68
2021/03/08 10:08:19;;;;;;;58.63;24.98;;;7.80;99.90;;;;;;5058798;28;20040;-69
2021/03/08 10:10:52;;;;;;;62.55;26.42;;;7.20;99.90;;;;;;5061098;28;20585;-68
2021/03/08 10:13:20;;;;;;;51.70;25.23;;;7.60;99.90;;;;;;5072445;28;20032;-70
2021/03/08 10:15:52;;;;;;;52.97;27.27;;;8.10;99.90;;;;;;5073865;28;20021;-70
2021/03/08 10:18:29;;;;;;;55.10;25.83;;;8.10;99.90;;;;;;5061376;28;20017;-68
2021/03/08 10:21:01;;;;;;;53.03;24.58;;;7.60;99.90;;;;;;5057630;28;20026;-68
2021/03/08 10:23:35;;;;;;;51.72;24.52;;;7.50;99.90;;;;;;5058711;28;20378;-68
2021/03/08 10:26:14;;;;;;;51.40;24.38;;;7.80;99.90;;;;;;5057603;28;20016;-68
2021/03/08 10:28:51;;;;;;;51.42;23.98;;;8.30;99.90;;;;;;5069392;28;20035;-68
2021/03/08 10:31:28;;;;;;;44.67;21.90;;;8.60;99.90;;;;;;5071003;28;20038;-68
2021/03/08 10:34:03;;;;;;;47.42;22.50;;;8.70;99.90;;;;;;5070776;28;20033;-69
2021/03/08 10:36:34;;;;;;;53.33;23.02;;;8.50;99.90;;;;;;5070302;28;20032;-66
2021/03/08 10:39:02;;;;;;;48.00;21.75;;;8.50;99.90;;;;;;5073388;28;20028;-69
2021/03/08 10:41:29;;;;;;;43.53;20.80;;;8.50;99.90;;;;;;5072120;28;20020;-68
2021/03/08 10:43:55;;;;;;;45.60;22.73;;;8.70;99.90;;;;;;5060974;28;20463;-69
2021/03/08 10:46:28;;;;;;;45.85;21.65;;;9.00;99.90;;;;;;5071289;28;20032;-66
2021/03/08 10:48:59;;;;;;;43.72;21.40;;;8.80;99.90;;;;;;5054488;28;20020;-69
2021/03/08 10:51:25;;;;;;;49.45;22.42;;;9.00;99.90;;;;;;5050050;28;20032;-68
2021/03/08 10:53:55;;;;;;;45.58;22.48;;;9.30;99.90;;;;;;5057419;28;20028;-69
2021/03/08 10:56:21;;;;;;;38.40;20.90;;;9.40;99.90;;;;;;5070914;28;20066;-67
2021/03/08 10:58:47;;;;;;;43.13;21.42;;;9.60;99.50;;;;;;5070839;28;20032;-69
2021/03/08 11:01:12;;;;;;;47.80;22.98;;;8.70;99.90;;;;;;5070275;28;20017;-68
2021/03/08 11:03:40;;;;;;;45.15;21.02;;;8.60;99.90;;;;;;5044899;28;20402;-69
2021/03/08 11:06:08;;;;;;;52.25;21.40;;;8.80;99.90;;;;;;5064558;28;20021;-68
2021/03/08 11:08:38;;;;;;;44.70;21.85;;;9.10;99.90;;;;;;5068900;28;20226;-69
2021/03/08 11:11:18;;;;;;;46.58;22.00;;;9.30;99.90;;;;;;5070514;28;20032;-71
2021/03/08 11:13:45;;;;;;;43.65;21.05;;;9.50;99.20;;;;;;5068858;28;20024;-68
2021/03/08 11:16:12;;;;;;;42.33;19.70;;;9.10;99.50;;;;;;5060039;28;20017;-67
2021/03/08 11:18:38;;;;;;;39.25;18.90;;;9.20;99.90;;;;;;5036787;28;20401;-68
2021/03/08 11:21:28;;;;;;;39.40;18.98;;;9.40;99.20;;;;;;5052036;28;20474;-68
2021/03/08 11:24:12;;;;;;;39.70;19.35;;;9.50;97.90;;;;;;5064459;28;20032;-69
2021/03/08 11:26:38;;;;;;;39.38;19.77;;;9.60;98.00;;;;;;5064312;28;20051;-68
2021/03/08 11:29:04;;;;;;;36.03;18.33;;;9.60;97.80;;;;;;5064959;28;20071;-68
2021/03/08 11:31:29;;;;;;;34.42;18.52;;;9.90;97.20;;;;;;5062043;28;20047;-67
2021/03/08 11:33:56;;;;;;;35.38;19.17;;;9.80;97.30;;;;;;5051898;28;20032;-68
2021/03/08 11:36:33;;;;;;;35.95;17.85;;;10.20;96.40;;;;;;5051795;28;20036;-68
2021/03/08 11:39:06;;;;;;;37.00;18.65;;;10.60;95.50;;;;;;5069475;28;20051;-69
2021/03/08 11:41:33;;;;;;;36.08;18.08;;;11.00;93.80;;;;;;5058162;28;20028;-71
2021/03/08 11:43:59;;;;;;;39.38;19.08;;;11.20;92.70;;;;;;5069639;28;20578;-65
2021/03/08 11:46:25;;;;;;;34.63;16.77;;;11.20;92.20;;;;;;5050767;28;20036;-67
2021/03/08 11:48:58;;;;;;;34.90;17.90;;;10.80;92.30;;;;;;5068244;28;20402;-68
2021/03/08 11:51:24;;;;;;;40.28;19.27;;;10.90;92.60;;;;;;5065515;28;20107;-70
2021/03/08 11:53:49;;;;;;;36.30;18.00;;;11.00;92.00;;;;;;5077197;28;20508;-70
2021/03/08 11:56:15;;;;;;;34.40;17.30;;;10.90;92.10;;;;;;5064265;28;20390;-69
2021/03/08 11:58:41;;;;;;;32.53;17.92;;;11.00;91.70;;;;;;5068896;28;20070;-70
2021/03/08 12:01:06;;;;;;;32.03;16.77;;;11.20;91.40;;;;;;5050587;28;20127;-68
2021/03/08 12:03:32;;;;;;;32.95;16.13;;;11.30;90.60;;;;;;5050910;28;20484;-68
2021/03/08 12:05:57;;;;;;;31.23;16.63;;;11.40;90.00;;;;;;5060794;28;20028;-68
2021/03/08 12:08:23;;;;;;;28.02;14.88;;;11.40;88.30;;;;;;5068646;28;20499;-67
2021/03/08 12:10:49;;;;;;;35.88;17.38;;;11.40;89.70;;;;;;5051708;28;20056;-68
2021/03/08 12:13:14;;;;;;;29.23;15.43;;;11.70;88.60;;;;;;5068983;28;20107;-68
2021/03/08 12:15:41;;;;;;;40.83;18.48;;;11.90;87.90;;;;;;5063265;28;20060;-67
2021/03/08 12:18:07;;;;;;;31.98;16.65;;;12.10;85.90;;;;;;5035741;28;20116;-68
2021/03/08 12:20:32;;;;;;;28.67;14.57;;;11.70;85.30;;;;;;5040543;28;20725;-67
2021/03/08 12:22:58;;;;;;;27.05;13.70;;;11.80;84.70;;;;;;5069244;28;20090;-70
2021/03/08 12:25:24;;;;;;;25.15;12.98;;;12.20;82.60;;;;;;5056135;28;20028;-68
2021/03/08 12:27:49;;;;;;;30.17;15.02;;;12.30;81.80;;;;;;5060662;28;20070;-68
2021/03/08 12:30:15;;;;;;;29.23;15.95;;;12.10;81.70;;;;;;5050996;28;20032;-67
2021/03/08 12:32:41;;;;;;;29.20;14.55;;;12.10;82.70;;;;;;5056131;28;20031;-67
2021/03/08 12:35:07;;;;;;;26.88;14.70;;;12.10;81.20;;;;;;5071546;28;20032;-67
2021/03/08 12:37:32;;;;;;;24.25;13.55;;;11.70;81.00;;;;;;5056272;28;20363;-68
2021/03/08 12:39:58;;;;;;;30.52;15.05;;;11.50;81.90;;;;;;5063334;28;20032;-69
2021/03/08 12:42:24;;;;;;;28.52;14.45;;;11.30;82.30;;;;;;5072078;28;20024;-66
2021/03/08 12:44:49;;;;;;;24.77;13.80;;;11.00;82.00;;;;;;5055175;28;20377;-66
2021/03/08 12:47:15;;;;;;;21.85;11.93;;;11.20;82.70;;;;;;5053699;28;20029;-69
2021/03/08 12:49:40;;;;;;;25.05;12.95;;;11.40;81.80;;;;;;5064917;28;20111;-66